createdAt,value
2023-09-23T00:00:14.823Z,9.50
2023-09-23T00:02:44.667Z,9.50
2023-09-23T00:05:12.962Z,9.60
2023-09-23T00:07:41.964Z,9.60
2023-09-23T00:10:10.110Z,9.60
2023-09-23T00:12:37.745Z,9.60
2023-09-23T00:15:08.697Z,9.60
2023-09-23T00:17:39.231Z,9.60
2023-09-23T00:20:15.907Z,9.60
2023-09-23T00:22:43.695Z,9.70
2023-09-23T00:25:10.980Z,9.70
2023-09-23T00:27:38.001Z,9.70
2023-09-23T00:30:06.172Z,9.70
2023-09-23T00:32:34.160Z,9.80
2023-09-23T00:35:01.041Z,9.90
2023-09-23T00:37:28.190Z,9.90
2023-09-23T00:39:54.948Z,9.90
2023-09-23T00:42:22.307Z,9.80
2023-09-23T00:44:49.028Z,9.80
2023-09-23T00:47:17.732Z,9.80
2023-09-23T00:49:45.776Z,9.80
2023-09-23T00:52:15.153Z,9.80
2023-09-23T00:54:42.808Z,9.80
2023-09-23T00:57:11.329Z,9.90
2023-09-23T00:59:38.350Z,9.90
2023-09-23T01:02:06.293Z,10.00
2023-09-23T01:04:34.934Z,10.00
2023-09-23T01:07:10.451Z,10.00
2023-09-23T01:09:38.468Z,10.00
2023-09-23T01:12:05.762Z,10.00
2023-09-23T01:14:32.893Z,9.80
2023-09-23T01:17:08.111Z,9.70
2023-09-23T01:19:35.689Z,9.70
2023-09-23T01:22:02.835Z,9.60
2023-09-23T01:24:31.460Z,9.50
2023-09-23T01:26:58.194Z,9.50
2023-09-23T01:29:24.980Z,9.50
2023-09-23T01:32:16.956Z,9.50
2023-09-23T01:34:43.790Z,9.50
2023-09-23T01:37:10.814Z,9.40
2023-09-23T01:39:41.647Z,9.50
2023-09-23T01:42:08.905Z,9.50
2023-09-23T01:44:35.672Z,9.50
2023-09-23T01:47:02.530Z,9.70
2023-09-23T01:49:29.256Z,9.80
2023-09-23T01:51:56.157Z,9.80
2023-09-23T01:54:22.935Z,9.80
2023-09-23T01:56:49.809Z,9.80
2023-09-23T01:59:16.620Z,9.90
2023-09-23T02:01:45.147Z,9.80
2023-09-23T02:04:12.279Z,9.70
2023-09-23T02:06:43.654Z,9.70
2023-09-23T02:09:10.897Z,9.60
2023-09-23T02:11:38.404Z,9.50
2023-09-23T02:14:08.553Z,9.50
2023-09-23T02:16:35.510Z,9.50
2023-09-23T02:19:03.388Z,9.60
2023-09-23T02:21:31.477Z,9.50
2023-09-23T02:23:58.350Z,9.40
2023-09-23T02:26:25.544Z,9.40
2023-09-23T02:28:53.497Z,9.40
2023-09-23T02:31:20.710Z,9.20
2023-09-23T02:33:47.849Z,9.20
2023-09-23T02:36:15.117Z,9.20
2023-09-23T02:38:46.078Z,9.10
2023-09-23T02:41:14.079Z,9.10
2023-09-23T02:43:41.383Z,9.10
2023-09-23T02:46:08.717Z,9.10
2023-09-23T02:48:35.496Z,9.20
2023-09-23T02:51:05.134Z,9.20
2023-09-23T02:53:32.098Z,9.10
2023-09-23T02:56:09.251Z,9.00
2023-09-23T02:58:36.488Z,8.90
2023-09-23T03:01:06.103Z,8.90
2023-09-23T03:03:34.966Z,9.00
2023-09-23T03:06:04.992Z,9.00
2023-09-23T03:08:31.952Z,9.00
2023-09-23T03:11:03.955Z,8.90
2023-09-23T03:13:30.820Z,8.90
2023-09-23T03:16:09.840Z,8.90
2023-09-23T03:19:05.930Z,9.00
2023-09-23T03:21:32.669Z,8.90
2023-09-23T03:24:00.888Z,8.90
2023-09-23T03:26:27.789Z,8.90
2023-09-23T03:28:54.649Z,8.90
2023-09-23T03:31:21.482Z,8.80
2023-09-23T03:33:51.678Z,8.90
2023-09-23T03:36:18.535Z,8.80
2023-09-23T03:38:45.655Z,8.90
2023-09-23T03:41:13.122Z,8.90
2023-09-23T03:43:40.597Z,8.90
2023-09-23T03:46:17.251Z,8.90
2023-09-23T03:48:47.943Z,8.90
2023-09-23T03:51:16.165Z,8.90
2023-09-23T03:53:46.386Z,9.00
2023-09-23T03:56:13.245Z,8.90
2023-09-23T03:58:40.101Z,8.90
2023-09-23T04:01:11.377Z,8.90
2023-09-23T04:03:38.213Z,8.90
2023-09-23T04:06:06.487Z,8.80
2023-09-23T04:08:33.273Z,8.80
2023-09-23T04:11:06.937Z,8.80
2023-09-23T04:13:33.936Z,8.90
2023-09-23T04:16:01.819Z,8.80
2023-09-23T04:18:34.366Z,8.90
2023-09-23T04:21:03.868Z,8.80
2023-09-23T04:23:31.158Z,8.90
2023-09-23T04:25:58.838Z,8.80
2023-09-23T04:28:25.621Z,8.90
2023-09-23T04:30:55.558Z,8.90
2023-09-23T04:33:23.976Z,8.90
2023-09-23T04:35:52.431Z,9.00
2023-09-23T04:38:19.353Z,8.90
2023-09-23T04:40:46.203Z,8.90
2023-09-23T04:43:13.472Z,8.90
2023-09-23T04:45:40.256Z,8.90
2023-09-23T04:48:07.921Z,8.90
2023-09-23T04:50:35.634Z,8.90
2023-09-23T04:53:03.802Z,8.90
2023-09-23T04:55:30.593Z,8.80
2023-09-23T04:57:57.312Z,8.80
2023-09-23T05:00:24.079Z,8.70
2023-09-23T05:02:51.027Z,8.80
2023-09-23T05:05:19.914Z,8.70
2023-09-23T05:07:46.839Z,8.70
2023-09-23T05:10:14.049Z,8.80
2023-09-23T05:12:41.330Z,8.80
2023-09-23T05:15:11.317Z,8.70
2023-09-23T05:17:38.593Z,8.80
2023-09-23T05:20:22.993Z,8.80
2023-09-23T05:22:50.104Z,8.70
2023-09-23T05:25:17.082Z,8.80
2023-09-23T05:27:47.228Z,8.70
2023-09-23T05:30:14.000Z,8.70
2023-09-23T05:32:40.804Z,8.80
2023-09-23T05:35:12.479Z,8.80
2023-09-23T05:37:44.121Z,8.80
2023-09-23T05:40:24.629Z,8.90
2023-09-23T05:42:52.024Z,8.90
2023-09-23T05:45:19.442Z,8.80
2023-09-23T05:47:49.514Z,8.90
2023-09-23T05:50:21.405Z,9.00
2023-09-23T05:52:49.143Z,8.90
2023-09-23T05:55:16.099Z,8.90
2023-09-23T05:57:43.428Z,8.90
2023-09-23T06:00:16.199Z,8.70
2023-09-23T06:02:46.074Z,8.60
2023-09-23T06:05:13.012Z,8.50
2023-09-23T06:07:39.985Z,8.60
2023-09-23T06:10:07.436Z,8.60
2023-09-23T06:12:34.753Z,8.60
2023-09-23T06:15:02.236Z,8.60
2023-09-23T06:17:29.836Z,8.90
2023-09-23T06:19:57.584Z,8.80
2023-09-23T06:22:24.599Z,8.50
2023-09-23T06:24:51.671Z,8.60
2023-09-23T06:27:19.348Z,8.60
2023-09-23T06:29:46.987Z,8.50
2023-09-23T06:32:16.881Z,8.50
2023-09-23T06:34:43.720Z,8.50
2023-09-23T06:37:10.518Z,9.10
2023-09-23T06:39:37.321Z,8.70
2023-09-23T06:42:04.233Z,8.50
2023-09-23T06:44:31.116Z,8.50
2023-09-23T06:46:59.266Z,8.60
2023-09-23T06:49:27.700Z,8.50
2023-09-23T06:51:54.420Z,8.50
2023-09-23T06:54:21.136Z,8.50
2023-09-23T06:56:47.931Z,8.50
2023-09-23T06:59:14.702Z,8.50
2023-09-23T07:01:41.486Z,8.50
2023-09-23T07:04:10.164Z,8.40
2023-09-23T07:06:37.062Z,8.50
2023-09-23T07:09:06.459Z,8.60
2023-09-23T07:11:33.387Z,8.70
2023-09-23T07:14:01.865Z,8.70
2023-09-23T07:16:28.985Z,8.70
2023-09-23T07:18:55.835Z,8.70
2023-09-23T07:21:22.684Z,8.80
2023-09-23T07:23:49.433Z,8.90
2023-09-23T07:26:22.944Z,9.10
2023-09-23T07:28:52.769Z,9.20
2023-09-23T07:31:19.567Z,9.30
2023-09-23T07:33:46.839Z,9.50
2023-09-23T07:36:14.306Z,9.60
2023-09-23T07:38:41.662Z,9.50
2023-09-23T07:41:08.907Z,9.40
2023-09-23T07:43:35.682Z,9.40
2023-09-23T07:46:02.476Z,9.60
2023-09-23T07:48:29.227Z,9.60
2023-09-23T07:50:55.951Z,9.80
2023-09-23T07:53:23.316Z,9.80
2023-09-23T07:55:50.521Z,9.80
2023-09-23T07:58:17.397Z,9.80
2023-09-23T08:00:44.367Z,9.80
2023-09-23T08:03:11.152Z,9.70
2023-09-23T08:05:38.045Z,9.70
2023-09-23T08:08:05.211Z,9.80
2023-09-23T08:10:32.737Z,9.80
2023-09-23T08:12:59.504Z,9.80
2023-09-23T08:15:26.279Z,10.10
2023-09-23T08:17:53.085Z,10.40
2023-09-23T08:20:22.763Z,10.60
2023-09-23T08:22:49.700Z,10.50
2023-09-23T08:25:17.309Z,10.50
2023-09-23T08:27:44.154Z,10.50
2023-09-23T08:30:11.671Z,10.50
2023-09-23T08:32:39.733Z,10.50
2023-09-23T08:35:08.737Z,10.40
2023-09-23T08:37:36.240Z,10.30
2023-09-23T08:40:13.232Z,10.40
2023-09-23T08:42:40.501Z,10.50
2023-09-23T08:45:10.982Z,10.70
2023-09-23T08:47:38.749Z,10.80
2023-09-23T08:50:12.372Z,10.80
2023-09-23T08:52:39.197Z,10.60
2023-09-23T08:55:08.681Z,10.70
2023-09-23T08:57:35.619Z,10.60
2023-09-23T09:00:03.369Z,10.50
2023-09-23T09:02:30.627Z,10.70
2023-09-23T09:04:58.653Z,10.90
2023-09-23T09:07:39.249Z,11.00
2023-09-23T09:10:07.203Z,11.00
2023-09-23T09:12:35.407Z,11.10
2023-09-23T09:15:02.617Z,11.00
2023-09-23T09:17:29.355Z,10.90
2023-09-23T09:19:56.168Z,11.10
2023-09-23T09:22:22.989Z,11.20
2023-09-23T09:24:49.880Z,11.40
2023-09-23T09:27:17.194Z,11.40
2023-09-23T09:29:44.673Z,11.30
2023-09-23T09:32:12.221Z,11.40
2023-09-23T09:34:44.926Z,11.30
2023-09-23T09:37:12.484Z,11.40
2023-09-23T09:39:49.170Z,11.40
2023-09-23T09:42:21.756Z,11.40
2023-09-23T09:44:48.819Z,11.30
2023-09-23T09:47:18.406Z,11.30
2023-09-23T09:49:46.518Z,11.30
2023-09-23T09:52:15.125Z,11.30
2023-09-23T09:54:43.978Z,11.40
2023-09-23T09:57:13.980Z,11.30
2023-09-23T09:59:43.332Z,11.30
2023-09-23T10:02:11.663Z,11.40
2023-09-23T10:04:38.563Z,11.50
2023-09-23T10:07:09.021Z,11.60
2023-09-23T10:09:39.474Z,11.50
2023-09-23T10:12:08.419Z,11.40
2023-09-23T10:14:35.329Z,11.40
2023-09-23T10:17:05.664Z,11.40
2023-09-23T10:19:40.005Z,11.40
2023-09-23T10:22:14.866Z,11.50
2023-09-23T10:24:42.139Z,11.60
2023-09-23T10:27:12.963Z,11.50
2023-09-23T10:29:48.442Z,11.50
2023-09-23T10:32:16.627Z,11.50
2023-09-23T10:34:56.816Z,11.50
2023-09-23T10:37:27.850Z,11.70
2023-09-23T10:39:56.283Z,11.50
2023-09-23T11:04:05.544Z,12.00
2023-09-23T11:06:33.052Z,12.10
2023-09-23T11:09:01.289Z,12.00
2023-09-23T11:11:28.340Z,12.10
2023-09-23T11:13:55.571Z,12.10
2023-09-23T11:16:24.092Z,12.00
2023-09-23T11:18:52.546Z,12.00
2023-09-23T11:21:19.544Z,12.00
2023-09-23T11:23:56.038Z,12.00
2023-09-23T11:26:23.888Z,12.00
2023-09-23T11:28:51.603Z,12.10
2023-09-23T11:31:18.682Z,12.00
2023-09-23T11:33:46.232Z,11.90
2023-09-23T11:36:13.595Z,11.90
2023-09-23T11:38:41.879Z,12.00
2023-09-23T11:41:09.166Z,12.20
2023-09-23T11:43:36.093Z,12.20
2023-09-23T11:46:03.068Z,12.30
2023-09-23T11:48:30.273Z,12.40
2023-09-23T11:50:58.243Z,12.50
2023-09-23T11:53:26.241Z,12.50
2023-09-23T11:55:53.299Z,12.60
2023-09-23T11:58:21.046Z,12.70
2023-09-23T12:00:51.137Z,12.50
2023-09-23T12:03:19.659Z,12.60
2023-09-23T12:05:46.856Z,12.40
2023-09-23T12:08:14.105Z,12.30
2023-09-23T12:10:40.999Z,12.50
2023-09-23T12:13:08.438Z,12.50
2023-09-23T12:15:35.640Z,12.60
2023-09-23T12:18:02.658Z,12.60
2023-09-23T12:20:29.705Z,12.50
2023-09-23T12:22:59.866Z,12.60
2023-09-23T12:25:26.779Z,12.60
2023-09-23T12:27:53.572Z,12.70
2023-09-23T12:30:20.579Z,12.70
2023-09-23T12:32:47.389Z,12.50
2023-09-23T12:35:14.575Z,12.60
2023-09-23T12:37:41.724Z,12.60
2023-09-23T12:40:09.035Z,12.70
2023-09-23T12:42:35.843Z,12.70
2023-09-23T12:45:06.074Z,12.70
2023-09-23T12:47:49.041Z,13.00
2023-09-23T12:50:20.134Z,12.90
2023-09-23T12:52:47.498Z,12.90
2023-09-23T12:55:14.281Z,13.10
2023-09-23T12:57:40.988Z,13.00
2023-09-23T13:00:08.713Z,13.00
2023-09-23T13:02:35.733Z,12.70
2023-09-23T13:05:03.461Z,12.80
2023-09-23T13:07:30.423Z,12.90
2023-09-23T13:09:57.314Z,12.90
2023-09-23T13:12:24.250Z,12.80
2023-09-23T13:14:51.151Z,12.70
2023-09-23T13:17:18.021Z,12.50
2023-09-23T13:19:44.826Z,12.50
2023-09-23T13:22:11.613Z,12.50
2023-09-23T13:24:38.434Z,12.50
2023-09-23T13:27:05.315Z,12.40
2023-09-23T13:29:32.808Z,12.50
2023-09-23T13:32:00.779Z,12.50
2023-09-23T13:34:27.723Z,12.50
2023-09-23T13:36:54.518Z,12.60
2023-09-23T13:39:21.313Z,12.60
2023-09-23T13:41:48.131Z,12.50
2023-09-23T13:44:14.953Z,12.50
2023-09-23T13:46:41.830Z,12.40
2023-09-23T13:49:08.653Z,12.60
2023-09-23T13:51:35.418Z,12.70
2023-09-23T13:54:02.262Z,12.80
2023-09-23T13:56:29.140Z,12.70
2023-09-23T13:58:55.936Z,12.70
2023-09-23T14:01:22.723Z,13.00
2023-09-23T14:03:49.599Z,13.10
2023-09-23T14:06:16.347Z,13.10
2023-09-23T14:08:44.280Z,13.20
2023-09-23T14:11:11.388Z,13.30
2023-09-23T14:13:38.673Z,13.20
2023-09-23T14:16:05.592Z,13.10
2023-09-23T14:18:32.398Z,13.10
2023-09-23T14:20:59.598Z,13.30
2023-09-23T14:23:26.499Z,13.50
2023-09-23T14:25:53.201Z,13.70
2023-09-23T14:28:19.981Z,13.80
2023-09-23T14:30:46.690Z,13.80
2023-09-23T14:33:13.524Z,13.90
2023-09-23T14:35:40.619Z,13.50
2023-09-23T14:38:07.625Z,13.40
2023-09-23T14:40:34.684Z,13.30
2023-09-23T14:43:01.495Z,13.20
2023-09-23T14:45:28.217Z,13.30
2023-09-23T14:47:55.111Z,13.50
2023-09-23T14:50:22.632Z,13.50
2023-09-23T14:52:49.766Z,13.50
2023-09-23T14:55:17.632Z,13.50
2023-09-23T14:57:44.504Z,13.60
2023-09-23T15:00:11.986Z,13.60
2023-09-23T15:02:38.921Z,13.20
2023-09-23T15:05:06.304Z,13.30
2023-09-23T15:07:33.121Z,13.30
2023-09-23T15:09:59.963Z,13.20
2023-09-23T15:12:26.676Z,13.10
2023-09-23T15:14:53.514Z,13.10
2023-09-23T15:17:20.276Z,13.20
2023-09-23T15:19:47.037Z,13.00
2023-09-23T15:22:13.758Z,13.00
2023-09-23T15:24:44.910Z,12.90
2023-09-23T15:27:12.680Z,12.80
2023-09-23T15:29:39.760Z,12.90
2023-09-23T15:32:06.812Z,13.00
2023-09-23T15:34:33.592Z,12.90
2023-09-23T15:37:00.350Z,13.00
2023-09-23T15:39:27.074Z,12.90
2023-09-23T15:41:53.812Z,12.90
2023-09-23T15:44:20.544Z,12.80
2023-09-23T15:46:47.303Z,12.80
2023-09-23T15:49:14.314Z,12.70
2023-09-23T15:51:41.208Z,12.70
2023-09-23T15:54:07.920Z,12.60
2023-09-23T15:56:40.650Z,12.60
2023-09-23T15:59:08.210Z,12.40
2023-09-23T16:01:36.135Z,12.30
2023-09-23T16:04:03.422Z,12.30
2023-09-23T16:06:30.398Z,12.40
2023-09-23T16:08:57.134Z,12.20
2023-09-23T16:11:24.405Z,12.30
2023-09-23T16:13:51.201Z,12.30
2023-09-23T16:16:18.077Z,12.30
2023-09-23T16:18:45.034Z,12.20
2023-09-23T16:21:11.873Z,12.20
2023-09-23T16:23:38.637Z,12.20
2023-09-23T16:26:05.469Z,12.40
2023-09-23T16:28:32.951Z,12.70
2023-09-23T16:30:59.775Z,13.20
2023-09-23T16:33:26.672Z,13.90
2023-09-23T16:35:53.471Z,14.60
2023-09-23T16:38:20.293Z,15.30
2023-09-23T16:40:50.993Z,15.20
2023-09-23T16:43:17.666Z,15.70
2023-09-23T16:45:48.392Z,16.20
2023-09-23T16:48:15.760Z,16.60
2023-09-23T16:50:43.051Z,16.70
2023-09-23T16:53:10.875Z,16.60
2023-09-23T16:55:38.289Z,16.20
2023-09-23T16:58:05.177Z,15.80
2023-09-23T17:00:32.014Z,14.90
2023-09-23T17:02:59.871Z,14.30
2023-09-23T17:05:26.802Z,14.10
2023-09-23T17:07:53.677Z,13.80
2023-09-23T17:10:20.405Z,13.40
2023-09-23T17:12:47.120Z,13.20
2023-09-23T17:15:13.922Z,13.00
2023-09-23T17:17:40.873Z,12.90
2023-09-23T17:20:08.403Z,12.60
2023-09-23T17:22:35.111Z,12.40
2023-09-23T17:25:01.910Z,12.20
2023-09-23T17:27:28.772Z,11.80
2023-09-23T17:29:55.659Z,11.60
2023-09-23T17:32:22.600Z,11.60
2023-09-23T17:34:49.383Z,11.60
2023-09-23T17:37:16.139Z,11.20
2023-09-23T17:39:42.854Z,11.20
2023-09-23T17:42:11.438Z,11.30
2023-09-23T17:44:38.604Z,11.30
2023-09-23T17:47:05.993Z,11.30
2023-09-23T17:49:32.753Z,11.40
2023-09-23T17:51:59.458Z,11.40
2023-09-23T17:54:26.268Z,11.30
2023-09-23T17:56:53.855Z,11.30
2023-09-23T17:59:20.689Z,11.30
2023-09-23T18:01:47.699Z,11.20
2023-09-23T18:04:14.660Z,11.30
2023-09-23T18:06:41.528Z,11.30
2023-09-23T18:09:08.335Z,11.30
2023-09-23T18:11:35.550Z,11.30
2023-09-23T18:14:05.317Z,11.20
2023-09-23T18:16:32.471Z,11.20
2023-09-23T18:18:59.386Z,11.10
2023-09-23T18:21:26.632Z,11.10
2023-09-23T18:23:53.458Z,11.00
2023-09-23T18:26:20.222Z,10.90
2023-09-23T18:28:47.293Z,10.80
2023-09-23T18:31:14.450Z,10.60
2023-09-23T18:33:41.873Z,10.60
2023-09-23T18:36:08.957Z,10.50
2023-09-23T18:38:35.790Z,10.50
2023-09-23T18:41:02.967Z,10.50
2023-09-23T18:43:29.808Z,10.50
2023-09-23T18:45:56.632Z,10.60
2023-09-23T18:48:27.979Z,10.70
2023-09-23T18:50:55.997Z,10.80
2023-09-23T18:53:22.770Z,10.90
2023-09-23T18:55:49.748Z,10.90
2023-09-23T18:58:16.581Z,11.00
2023-09-23T19:00:44.512Z,11.00
2023-09-23T19:03:11.454Z,11.00
2023-09-23T19:05:39.618Z,11.10
2023-09-23T19:08:06.987Z,11.00
2023-09-23T19:10:33.744Z,11.00
2023-09-23T19:13:00.599Z,10.80
2023-09-23T19:15:28.287Z,10.70
2023-09-23T19:17:56.773Z,10.50
2023-09-23T19:20:24.304Z,10.50
2023-09-23T19:22:51.091Z,10.50
2023-09-23T19:25:17.816Z,10.50
2023-09-23T19:27:44.562Z,10.60
2023-09-23T19:30:14.485Z,10.60
2023-09-23T19:32:42.600Z,10.70
2023-09-23T19:35:10.312Z,10.70
2023-09-23T19:37:38.990Z,10.70
2023-09-23T19:40:07.318Z,10.70
2023-09-23T19:42:34.370Z,10.80
2023-09-23T19:45:04.643Z,10.70
2023-09-23T19:47:32.601Z,10.80
2023-09-23T19:50:00.656Z,10.80
2023-09-23T19:52:30.366Z,10.80
2023-09-23T19:54:57.506Z,10.60
2023-09-23T19:57:25.918Z,10.40
2023-09-23T19:59:52.911Z,10.30
2023-09-23T20:02:19.942Z,10.30
2023-09-23T20:04:47.184Z,10.30
2023-09-23T20:07:14.266Z,10.30
2023-09-23T20:09:41.571Z,10.30
2023-09-23T20:12:08.449Z,10.30
2023-09-23T20:14:37.972Z,10.30
2023-09-23T20:17:05.423Z,10.30
2023-09-23T20:19:32.242Z,10.30
2023-09-23T20:21:58.991Z,10.40
2023-09-23T20:24:25.740Z,10.50
2023-09-23T20:26:54.172Z,10.50
2023-09-23T20:29:22.162Z,10.50
2023-09-23T20:31:49.828Z,10.40
2023-09-23T20:34:18.012Z,10.50
2023-09-23T20:36:45.628Z,10.50
2023-09-23T20:39:13.213Z,10.50
2023-09-23T20:41:40.424Z,10.50
2023-09-23T20:44:07.523Z,10.60
2023-09-23T20:46:34.618Z,10.50
2023-09-23T20:49:01.735Z,10.50
2023-09-23T20:51:29.358Z,10.50
2023-09-23T20:53:56.759Z,10.50
2023-09-23T20:56:23.978Z,10.60
2023-09-23T20:58:50.882Z,10.60
2023-09-23T21:01:17.784Z,10.60
2023-09-23T21:03:44.735Z,10.60
2023-09-23T21:06:11.802Z,10.60
2023-09-23T21:08:38.708Z,10.60
2023-09-23T21:11:05.558Z,10.60
2023-09-23T21:13:32.311Z,10.60
2023-09-23T21:16:05.635Z,10.60
2023-09-23T21:18:33.014Z,10.60
2023-09-23T21:20:59.901Z,10.70
2023-09-23T21:23:26.768Z,10.70
2023-09-23T21:25:53.733Z,10.70
2023-09-23T21:28:20.583Z,10.70
2023-09-23T21:30:47.597Z,10.60
2023-09-23T21:33:15.009Z,10.60
2023-09-23T21:35:42.529Z,10.60
2023-09-23T21:38:09.555Z,10.60
2023-09-23T21:40:40.920Z,10.60
2023-09-23T21:43:09.025Z,10.60
2023-09-23T21:45:39.091Z,10.60
2023-09-23T21:48:10.151Z,10.70
2023-09-23T21:50:37.090Z,10.70
2023-09-23T21:53:05.309Z,10.60
2023-09-23T21:55:32.060Z,10.70
2023-09-23T21:57:58.921Z,10.60
2023-09-23T22:00:29.234Z,10.60
2023-09-23T22:02:58.954Z,10.60
2023-09-23T22:05:26.882Z,10.70
2023-09-23T22:08:05.080Z,10.70
2023-09-23T22:10:32.017Z,10.70
2023-09-23T22:13:00.271Z,10.70
2023-09-23T22:15:28.981Z,10.60
2023-09-23T22:17:58.553Z,10.60
2023-09-23T22:20:28.151Z,10.50
2023-09-23T22:22:55.368Z,10.50
2023-09-23T22:25:23.134Z,10.50
2023-09-23T22:27:54.295Z,10.50
2023-09-23T22:30:25.769Z,10.50
2023-09-23T22:32:57.562Z,10.50
2023-09-23T22:35:26.127Z,10.40
2023-09-23T22:37:53.106Z,10.40
2023-09-23T22:40:20.090Z,10.40
2023-09-23T22:42:48.046Z,10.40
2023-09-23T22:45:24.142Z,10.30
2023-09-23T22:47:59.603Z,10.30
2023-09-23T22:50:27.644Z,10.30
2023-09-23T22:52:57.140Z,10.20
2023-09-23T22:55:25.640Z,10.20
2023-09-23T22:57:52.610Z,10.10
2023-09-23T23:00:22.308Z,10.10
2023-09-23T23:02:49.509Z,10.00
2023-09-23T23:05:16.831Z,9.90
2023-09-23T23:07:53.280Z,9.70
2023-09-23T23:10:21.038Z,9.80
2023-09-23T23:12:48.494Z,9.80
2023-09-23T23:15:17.250Z,9.90
2023-09-23T23:17:46.417Z,10.00
2023-09-23T23:20:25.236Z,10.00
2023-09-23T23:22:53.782Z,10.10
2023-09-23T23:25:21.588Z,10.10
2023-09-23T23:27:48.453Z,10.10
2023-09-23T23:30:17.681Z,10.10
2023-09-23T23:32:45.081Z,10.10
2023-09-23T23:35:12.015Z,10.00
2023-09-23T23:37:39.031Z,9.90
2023-09-23T23:40:06.905Z,9.80
2023-09-23T23:42:35.156Z,9.80
2023-09-23T23:45:02.152Z,9.60
2023-09-23T23:47:29.004Z,9.50
2023-09-23T23:49:56.115Z,9.30
2023-09-23T23:52:23.464Z,9.30
2023-09-23T23:54:50.190Z,9.20
2023-09-23T23:57:17.733Z,9.20
2023-09-23T23:59:45.547Z,9.30
